OSAP/ALP METAR and TAF weather

Enter ICAO airport designator
Station Type Date Time Source
OSAP METAR 2023/02/09 00:00 UTC NOAA

OSAP 090000Z 33002KT CAVOK M02/M02 Q1022


Station Type Date Time Source
OSAP Decoded METAR 2023/02/09 00:00 UTC NOAA

Aleppo International Airport, Syria (OSAP) 36-11N 037-12E 384M
Feb 08, 2023 - 07:00 PM EST / 2023.02.09 0000 UTC
Wind: from the NNW (330 degrees) at 2 MPH (2 KT):0
Visibility: greater than 7 mile(s):0
Temperature: 28 F (-2 C)
Dew Point: 28 F (-2 C)
Relative Humidity: 100%
Pressure (altimeter): 30.18 in. Hg (1022 hPa)
ob: OSAP 090000Z 33002KT CAVOK M02/M02 Q1022
cycle: 0

Station Type Date Time Source
OSAP TAF 2023/02/08 18:12 UTC NOAA

TAF TAF OSAP 0818/0918 VRB03KT 4000 BR NSC
TEMPO 0902/0906 2000 BR
BECMG 0908/0911 33008KT CAVOK

Example: see airport list